Time;durP1;ratioP1;P1;durP2;ratioP2;P2;SDS_P1;SDS_P2;PMS_P1;PMS_P2;Temp;Humidity;BMP_temperature;BMP_pressure;BME280_temperature;BME280_humidity;BME280_pressure;Samples;Min_cycle;Max_cycle;Signal;HPM_P1;HPM_P2
2022/06/19 00:02:21;;;;;;;1999.90;999.90;;;;;;;24.73;41.62;95184.22;5029433;28;20033;-68
2022/06/19 00:04:52;;;;;;;1999.90;999.90;;;;;;;24.78;41.70;95202.88;5030006;28;20021;-68
2022/06/19 00:07:18;;;;;;;1999.90;999.90;;;;;;;24.71;41.83;95192.00;5029548;28;20104;-68
2022/06/19 00:09:43;;;;;;;1999.90;999.90;;;;;;;24.61;41.71;95169.88;5029819;28;20108;-68
2022/06/19 00:12:10;;;;;;;1999.90;999.90;;;;;;;24.60;42.21;95170.28;5029440;28;20045;-68
2022/06/19 00:14:36;;;;;;;1999.90;999.90;;;;;;;24.45;42.30;95147.00;5028430;28;20029;-68
2022/06/19 00:17:02;;;;;;;1999.90;999.90;;;;;;;24.47;42.04;95142.75;5029832;28;20057;-68
2022/06/19 00:19:28;;;;;;;1999.90;999.90;;;;;;;24.50;42.56;95160.19;5029766;28;20017;-68
2022/06/19 00:21:53;;;;;;;1999.90;999.90;;;;;;;24.30;42.82;95157.09;5029134;28;20033;-68
2022/06/19 00:24:18;;;;;;;1999.90;999.90;;;;;;;24.11;43.11;95131.16;5029402;28;20056;-68
2022/06/19 00:26:44;;;;;;;1999.90;999.90;;;;;;;24.38;43.24;95151.31;5029568;28;20029;-68
2022/06/19 00:29:09;;;;;;;1999.90;999.90;;;;;;;24.25;43.06;95122.94;5029575;28;20109;-68
2022/06/19 00:31:35;;;;;;;1999.90;999.90;;;;;;;24.55;42.48;95148.91;5029074;28;20026;-68
2022/06/19 00:34:00;;;;;;;1999.90;999.90;;;;;;;24.51;43.13;95150.88;5029380;28;20083;-67
2022/06/19 00:36:27;;;;;;;1999.90;999.90;;;;;;;24.30;42.98;95127.22;5029369;28;20029;-68
2022/06/19 00:38:53;;;;;;;1999.90;999.90;;;;;;;24.35;43.47;95146.63;5028227;28;20037;-68
2022/06/19 00:41:19;;;;;;;1999.90;999.90;;;;;;;24.14;43.40;95130.34;5028944;28;20048;-67
2022/06/19 00:44:05;;;;;;;1999.90;999.90;;;;;;;24.04;43.42;95102.03;5029442;28;20521;-68
2022/06/19 00:46:38;;;;;;;1999.90;999.90;;;;;;;24.08;42.51;95078.34;5027943;28;20105;-68
2022/06/19 00:49:08;;;;;;;1999.90;999.90;;;;;;;24.32;43.03;95120.22;5029476;28;20409;-68
2022/06/19 00:51:33;;;;;;;1999.90;999.90;;;;;;;23.75;43.71;95085.03;5027725;28;20037;-69
2022/06/19 00:53:59;;;;;;;1999.90;999.90;;;;;;;24.01;43.42;95107.50;5029345;28;20474;-68
2022/06/19 00:56:27;;;;;;;1999.90;999.90;;;;;;;23.89;44.03;95099.72;5029121;28;20022;-68
2022/06/19 00:58:53;;;;;;;1999.90;999.90;;;;;;;23.92;43.93;95101.69;5029548;28;20031;-68
2022/06/19 01:01:22;;;;;;;1999.90;999.90;;;;;;;23.79;44.70;95115.63;5028900;28;20849;-68
2022/06/19 01:04:04;;;;;;;1999.90;999.90;;;;;;;23.81;44.19;95105.19;5029208;28;20368;-68
2022/06/19 01:06:30;;;;;;;1999.90;999.90;;;;;;;23.88;43.88;95117.97;5027788;28;20025;-68
2022/06/19 01:08:56;;;;;;;1999.90;999.90;;;;;;;23.76;44.65;95112.94;5028070;28;20111;-68
2022/06/19 01:11:24;;;;;;;1999.90;999.90;;;;;;;23.55;44.89;95100.91;5028957;28;20022;-68
2022/06/19 01:13:50;;;;;;;1999.90;999.90;;;;;;;23.65;44.44;95118.38;5029229;28;20025;-68
2022/06/19 01:16:16;;;;;;;1999.90;999.90;;;;;;;23.39;45.12;95083.44;5029217;28;20071;-68
2022/06/19 01:18:41;;;;;;;1999.90;999.90;;;;;;;23.38;44.54;95073.75;5027861;28;20116;-67
2022/06/19 01:21:13;;;;;;;1999.90;999.90;;;;;;;23.50;45.44;95103.22;5032527;28;20374;-67
2022/06/19 01:23:49;;;;;;;;;;;;;;;23.49;45.08;95101.66;5033259;28;20363;-68
2022/06/19 01:26:17;;;;;;;1999.90;999.90;;;;;;;23.47;44.71;95091.19;5032922;28;19996;-68
2022/06/19 01:28:55;;;;;;;1999.90;999.90;;;;;;;23.37;44.85;95080.34;5032529;28;20481;-68
2022/06/19 01:31:30;;;;;;;1999.90;999.90;;;;;;;23.32;44.99;95073.34;5032325;28;20017;-67
2022/06/19 01:34:29;;;;;;;1999.90;999.90;;;;;;;23.12;44.79;95048.53;5032802;28;20028;-68
2022/06/19 01:37:06;;;;;;;1999.90;999.90;;;;;;;23.37;44.72;95064.81;5032592;28;20485;-68
2022/06/19 01:39:40;;;;;;;1999.90;999.90;;;;;;;23.17;45.02;95056.28;5032459;28;20033;-68
2022/06/19 01:42:07;;;;;;;1999.90;999.90;;;;;;;23.13;45.10;95055.50;5032126;28;20486;-68
2022/06/19 01:44:33;;;;;;;1999.90;999.90;;;;;;;23.08;44.58;95016.00;5032386;28;20409;-69
2022/06/19 01:46:59;;;;;;;1999.90;999.90;;;;;;;23.06;44.74;95028.38;5032419;28;20029;-67
2022/06/19 01:49:24;;;;;;;1999.90;999.90;;;;;;;23.13;44.49;95033.03;5032374;28;20060;-69
2022/06/19 01:51:51;;;;;;;1999.90;999.90;;;;;;;23.12;44.35;95024.09;5030611;28;20087;-68
2022/06/19 01:54:23;;;;;;;1999.90;999.90;;;;;;;23.05;44.32;95013.25;5032295;28;20037;-68
2022/06/19 01:56:49;;;;;;;;;;;;;;;23.24;43.92;95037.31;5032695;28;20075;-68
2022/06/19 01:59:14;;;;;;;1999.90;999.90;;;;;;;23.09;43.98;95009.41;5031180;28;20296;-68
2022/06/19 02:01:40;;;;;;;1999.90;999.90;;;;;;;23.09;44.04;95011.34;5031746;28;20050;-67
2022/06/19 02:04:07;;;;;;;1999.90;999.90;;;;;;;23.25;43.85;95025.28;5032283;28;20061;-68
2022/06/19 02:06:56;;;;;;;1999.90;999.90;;;;;;;23.14;43.93;95005.53;5032055;28;20032;-68
2022/06/19 02:09:23;;;;;;;1999.90;999.90;;;;;;;22.93;44.18;94970.22;5032106;28;20028;-68
2022/06/19 02:11:49;;;;;;;1999.90;999.90;;;;;;;23.25;43.47;95021.81;5031770;28;20025;-68
2022/06/19 02:14:16;;;;;;;1999.90;999.90;;;;;;;23.27;43.69;95012.09;5030625;28;20493;-68
2022/06/19 02:16:44;;;;;;;1999.90;999.90;;;;;;;23.27;43.30;95006.66;5031692;28;20029;-68
2022/06/19 02:19:11;;;;;;;1999.90;999.90;;;;;;;23.08;43.46;94983.44;5031780;28;20064;-67
2022/06/19 02:21:40;;;;;;;1999.90;999.90;;;;;;;23.14;43.46;94988.47;5030224;28;20079;-68
2022/06/19 02:24:07;;;;;;;1999.90;999.90;;;;;;;23.20;43.35;95005.91;5032118;28;20067;-68
2022/06/19 02:26:36;;;;;;;1999.90;999.90;;;;;;;23.26;43.60;94998.91;5031957;28;20052;-68
2022/06/19 02:29:03;;;;;;;1999.90;999.90;;;;;;;23.04;43.65;94958.22;5031984;28;20377;-67
2022/06/19 02:31:32;;;;;;;1999.90;999.90;;;;;;;22.99;43.61;94966.00;5031366;28;20093;-68
2022/06/19 02:34:02;;;;;;;1999.90;999.90;;;;;;;22.86;43.62;94946.56;5030863;28;20021;-68
2022/06/19 02:36:43;;;;;;;1999.90;999.90;;;;;;;22.98;43.79;94973.34;5030933;28;20037;-68
2022/06/19 02:39:18;;;;;;;1999.90;999.90;;;;;;;23.03;43.70;94981.09;5031569;28;20032;-68
2022/06/19 02:41:57;;;;;;;1999.90;999.90;;;;;;;22.92;44.05;94960.53;5030717;28;20033;-68
2022/06/19 02:44:31;;;;;;;1999.90;999.90;;;;;;;22.74;44.02;94945.03;5031242;28;20018;-68
2022/06/19 02:46:56;;;;;;;1999.90;999.90;;;;;;;22.78;44.19;94948.53;5030201;28;20057;-68
2022/06/19 02:49:21;;;;;;;1999.90;999.90;;;;;;;22.78;44.34;94945.03;5031143;28;20433;-68
2022/06/19 02:51:46;;;;;;;1999.90;999.90;;;;;;;22.48;44.12;94896.59;5030921;28;20031;-68
2022/06/19 02:54:12;;;;;;;1999.90;999.90;;;;;;;22.87;44.03;94958.97;5031070;28;20029;-68
2022/06/19 02:56:37;;;;;;;1999.90;999.90;;;;;;;22.85;44.54;94983.00;5029944;28;20108;-68
2022/06/19 02:59:02;;;;;;;1999.90;999.90;;;;;;;22.53;45.32;94958.56;5031059;28;20018;-68
2022/06/19 03:01:28;;;;;;;1999.90;999.90;;;;;;;22.69;44.55;94941.94;5030563;28;20029;-68
2022/06/19 03:03:54;;;;;;;1999.90;999.90;;;;;;;22.88;44.43;94957.84;5030026;28;20056;-68
2022/06/19 03:06:19;;;;;;;1999.90;999.90;;;;;;;22.92;44.02;94972.16;5030997;28;20104;-67
2022/06/19 03:08:45;;;;;;;1999.90;999.90;;;;;;;22.75;44.21;94937.66;5030912;28;20461;-68
2022/06/19 03:11:10;;;;;;;1999.90;999.90;;;;;;;22.91;44.33;94973.34;5030514;28;20026;-69
2022/06/19 03:13:36;;;;;;;1999.90;999.90;;;;;;;22.71;44.14;94945.00;5029607;28;20017;-68
2022/06/19 03:16:07;;;;;;;1999.90;999.90;;;;;;;22.83;44.51;94967.13;5030898;28;20044;-68
2022/06/19 03:18:34;;;;;;;1999.90;999.90;;;;;;;22.92;44.64;94980.31;5030797;28;20116;-68
2022/06/19 03:20:59;;;;;;;1999.90;999.90;;;;;;;22.82;44.40;94968.25;5030389;28;20036;-67
2022/06/19 03:23:25;;;;;;;1999.90;999.90;;;;;;;22.77;44.62;94965.94;5030312;28;20045;-68
2022/06/19 03:25:50;;;;;;;1999.90;999.90;;;;;;;22.92;44.61;94985.72;5030535;28;20034;-67
2022/06/19 03:28:16;;;;;;;1999.90;999.90;;;;;;;22.93;44.42;94975.66;5030537;28;20109;-67
2022/06/19 03:30:41;;;;;;;1999.90;999.90;;;;;;;22.66;44.41;94923.72;5029848;28;20029;-68
2022/06/19 03:33:06;;;;;;;1999.90;999.90;;;;;;;23.09;44.44;94989.63;5029218;28;20431;-67
2022/06/19 03:35:32;;;;;;;1999.90;999.90;;;;;;;23.00;44.09;94964.81;5030413;28;20701;-68
2022/06/19 03:37:57;;;;;;;1999.90;999.90;;;;;;;23.11;43.92;94971.00;5030391;28;20051;-68
2022/06/19 03:40:23;;;;;;;1999.90;999.90;;;;;;;23.08;43.90;94953.59;5030145;28;20028;-68
2022/06/19 03:42:48;;;;;;;1999.90;999.90;;;;;;;23.26;43.86;94972.56;5029557;28;20029;-68
2022/06/19 03:45:13;;;;;;;1999.90;999.90;;;;;;;23.15;43.94;94944.66;5030188;28;20053;-68
2022/06/19 03:47:39;;;;;;;1999.90;999.90;;;;;;;23.42;43.78;94960.53;5030647;28;20061;-68
2022/06/19 03:50:06;;;;;;;1999.90;999.90;;;;;;;23.56;43.46;94988.41;5029626;28;20039;-68
2022/06/19 03:52:31;;;;;;;1999.90;999.90;;;;;;;23.54;43.59;94960.09;5027917;28;20040;-67
2022/06/19 03:54:57;;;;;;;1999.90;999.90;;;;;;;23.56;43.31;94974.06;5030134;28;20021;-68
2022/06/19 03:57:22;;;;;;;1999.90;999.90;;;;;;;23.47;43.24;94958.19;5029975;28;20026;-68
2022/06/19 03:59:47;;;;;;;1999.90;999.90;;;;;;;23.59;43.31;94954.25;5029988;28;20032;-68
2022/06/19 04:02:13;;;;;;;1999.90;999.90;;;;;;;23.55;43.23;94934.50;5029168;28;20033;-68
2022/06/19 04:04:42;;;;;;;1999.90;999.90;;;;;;;23.44;43.69;94958.97;5029876;28;21020;-70
2022/06/19 04:07:14;;;;;;;1999.90;999.90;;;;;;;23.97;43.39;94981.75;5029975;28;20109;-68
2022/06/19 04:09:39;;;;;;;1999.90;999.90;;;;;;;23.97;42.60;94970.88;5030045;28;20017;-68
2022/06/19 04:12:05;;;;;;;1999.90;999.90;;;;;;;23.71;42.81;94896.88;5029430;28;20033;-68
2022/06/19 04:14:31;;;;;;;1999.90;999.90;;;;;;;24.34;42.86;94965.66;5028535;28;20028;-68
2022/06/19 04:16:56;;;;;;;1999.90;999.90;;;;;;;24.33;42.41;94931.50;5029808;28;20090;-68
2022/06/19 04:19:21;;;;;;;1999.90;999.90;;;;;;;24.89;41.69;94964.94;5029523;28;20036;-68
2022/06/19 04:21:47;;;;;;;1999.90;999.90;;;;;;;25.23;41.19;94979.88;5028067;28;20474;-68
2022/06/19 04:24:16;;;;;;;1999.90;999.90;;;;;;;25.36;40.86;94950.97;5029404;28;20033;-68
2022/06/19 04:26:42;;;;;;;1999.90;999.90;;;;;;;25.54;40.04;94948.88;5029476;28;20108;-68
2022/06/19 04:29:09;;;;;;;1999.90;999.90;;;;;;;25.87;39.94;94980.03;5029690;28;20035;-68
2022/06/19 04:31:35;;;;;;;1999.90;999.90;;;;;;;25.93;39.25;94961.28;5027959;28;20072;-68
2022/06/19 04:34:01;;;;;;;1999.90;999.90;;;;;;;26.30;39.18;94993.16;5029494;28;20026;-68
2022/06/19 04:36:28;;;;;;;1999.90;999.90;;;;;;;26.38;38.72;94966.59;5029586;28;20049;-68
2022/06/19 04:38:56;;;;;;;1999.90;999.90;;;;;;;26.74;38.45;94985.22;5029633;28;20032;-68
2022/06/19 04:41:31;;;;;;;1999.90;999.90;;;;;;;26.93;38.15;94990.78;5029171;28;20032;-68
2022/06/19 04:43:59;;;;;;;1999.90;999.90;;;;;;;27.01;37.41;94952.44;5029544;28;20029;-68
2022/06/19 04:46:26;;;;;;;1999.90;999.90;;;;;;;27.38;36.81;94982.28;5029076;28;20060;-68
2022/06/19 04:48:52;;;;;;;1999.90;999.90;;;;;;;27.29;37.27;94929.41;5028059;28;20421;-68
2022/06/19 04:51:18;;;;;;;1999.90;999.90;;;;;;;27.49;36.39;94990.31;5028991;28;20030;-69
2022/06/19 04:53:45;;;;;;;1999.90;999.90;;;;;;;27.55;36.05;94996.84;5031192;28;20032;-68
2022/06/19 04:56:12;;;;;;;1999.90;999.90;;;;;;;27.72;36.14;94989.53;5031978;28;20033;-68
2022/06/19 04:58:38;;;;;;;1999.90;999.90;;;;;;;27.96;36.63;94991.03;5033237;28;20029;-69
2022/06/19 05:01:12;;;;;;;1999.90;999.90;;;;;;;28.21;36.20;94984.31;5032817;28;20385;-68
2022/06/19 05:03:38;;;;;;;1999.90;999.90;;;;;;;28.24;36.12;94950.63;5033702;28;20098;-69
2022/06/19 05:06:04;;;;;;;1999.90;999.90;;;;;;;28.66;35.57;94981.03;5033341;28;20525;-68
2022/06/19 05:08:30;;;;;;;1999.90;999.90;;;;;;;28.62;35.16;94958.47;5033154;28;20791;-68
2022/06/19 05:10:55;;;;;;;1999.90;999.90;;;;;;;28.87;34.65;94964.13;5032779;28;20053;-68
2022/06/19 05:13:22;;;;;;;1999.90;999.90;;;;;;;29.11;34.08;94980.41;5033258;28;20108;-69
2022/06/19 05:15:49;;;;;;;1999.90;999.90;;;;;;;29.04;33.78;94947.75;5033229;28;20386;-68
2022/06/19 05:18:15;;;;;;;1999.90;999.90;;;;;;;29.56;33.55;94994.22;5033038;28;20032;-68
2022/06/19 05:20:41;;;;;;;1999.90;999.90;;;;;;;29.62;33.48;94980.75;5032429;28;20021;-68
2022/06/19 05:23:07;;;;;;;1999.90;999.90;;;;;;;29.80;33.71;94988.53;5032880;28;20030;-68
2022/06/19 05:25:33;;;;;;;1999.90;999.90;;;;;;;29.85;33.53;94977.78;5032942;28;20055;-68
2022/06/19 05:27:58;;;;;;;1999.90;999.90;;;;;;;29.90;33.56;94971.00;5033008;28;20025;-69
2022/06/19 05:30:24;;;;;;;1999.90;999.90;;;;;;;30.12;32.22;94982.16;5031433;28;20335;-69
2022/06/19 05:32:49;;;;;;;1999.90;999.90;;;;;;;30.06;32.31;94959.22;5033031;28;20920;-68
2022/06/19 05:35:15;;;;;;;1999.90;999.90;;;;;;;30.34;32.02;94969.38;5031464;28;20021;-68
2022/06/19 05:37:40;;;;;;;1999.90;999.90;;;;;;;30.37;31.78;94954.03;5032902;28;20037;-69
2022/06/19 05:40:06;;;;;;;1999.90;999.90;;;;;;;30.46;31.83;94965.91;5032380;28;20048;-69
2022/06/19 05:42:32;;;;;;;1999.90;999.90;;;;;;;30.52;31.81;94971.63;5032355;28;20490;-68
2022/06/19 05:44:57;;;;;;;1999.90;999.90;;;;;;;30.69;31.81;94983.28;5031369;28;20032;-69
2022/06/19 05:47:22;;;;;;;1999.90;999.90;;;;;;;30.64;31.54;94959.09;5032643;28;20037;-68
2022/06/19 05:49:48;;;;;;;1999.90;999.90;;;;;;;30.62;31.56;94943.09;5032720;28;20029;-69
2022/06/19 05:52:24;;;;;;;1999.90;999.90;;;;;;;30.75;32.16;94965.84;5031929;28;20034;-69
2022/06/19 05:54:50;;;;;;;1999.90;999.90;;;;;;;30.93;32.20;94975.53;5032572;28;20105;-69
2022/06/19 05:57:16;;;;;;;1999.90;999.90;;;;;;;30.78;31.87;94943.00;5032314;28;20083;-68
2022/06/19 05:59:41;;;;;;;1999.90;999.90;;;;;;;31.04;32.38;94973.97;5032377;28;20420;-69
2022/06/19 06:02:09;;;;;;;1999.90;999.90;;;;;;;31.19;31.79;94987.25;5031799;28;20625;-68
2022/06/19 06:04:34;;;;;;;1999.90;999.90;;;;;;;31.04;31.16;94957.47;5031463;28;20076;-68
2022/06/19 06:07:00;;;;;;;1999.90;999.90;;;;;;;31.15;31.40;94965.38;5032165;28;20025;-69
2022/06/19 06:09:25;;;;;;;1999.90;999.90;;;;;;;31.36;31.40;94985.16;5032068;28;20418;-69
2022/06/19 06:11:50;;;;;;;1999.90;999.90;;;;;;;31.31;31.35;94967.25;5031691;28;20040;-68
2022/06/19 06:14:16;;;;;;;1999.90;999.90;;;;;;;31.48;31.22;94981.59;5030550;28;20382;-69
2022/06/19 06:16:41;;;;;;;1999.90;999.90;;;;;;;31.42;31.09;94962.16;5031984;28;20470;-69
2022/06/19 06:19:06;;;;;;;1999.90;999.90;;;;;;;31.63;31.13;94988.16;5031939;28;20037;-69
2022/06/19 06:21:32;;;;;;;1999.90;999.90;;;;;;;31.48;31.17;94971.41;5030230;28;20037;-68
2022/06/19 06:23:57;;;;;;;1999.90;999.90;;;;;;;31.64;31.45;94977.97;5031794;28;20068;-69
2022/06/19 06:26:25;;;;;;;1999.90;999.90;;;;;;;31.79;31.11;94982.53;5031742;28;20083;-69
2022/06/19 06:28:53;;;;;;;1999.90;999.90;;;;;;;32.01;31.35;94996.31;5030569;28;20060;-68
2022/06/19 06:31:18;;;;;;;1999.90;999.90;;;;;;;31.95;31.14;94970.59;5031341;28;20041;-68
2022/06/19 06:33:44;;;;;;;1999.90;999.90;;;;;;;32.06;31.62;94970.22;5031552;28;20025;-69
2022/06/19 06:36:10;;;;;;;1999.90;999.90;;;;;;;32.24;31.16;94978.59;5031777;28;20029;-69
2022/06/19 06:38:36;;;;;;;1999.90;999.90;;;;;;;32.42;30.79;95004.72;5031414;28;20025;-69
2022/06/19 06:41:04;;;;;;;1999.90;999.90;;;;;;;32.49;30.28;95009.97;5031198;28;20028;-71
2022/06/19 06:43:29;;;;;;;1999.90;999.90;;;;;;;32.38;30.61;94988.34;5030130;28;20029;-69
2022/06/19 06:46:03;;;;;;;1999.90;999.90;;;;;;;32.61;29.29;95017.41;5031320;28;20017;-69
2022/06/19 06:48:28;;;;;;;1999.90;999.90;;;;;;;32.71;29.51;95001.66;5031434;28;20374;-69
2022/06/19 06:50:54;;;;;;;1999.90;999.90;;;;;;;32.63;28.30;94989.41;5030761;28;20025;-68
2022/06/19 06:53:19;;;;;;;1999.90;999.90;;;;;;;32.86;29.46;95011.72;5031389;28;20591;-69
2022/06/19 06:55:45;;;;;;;1999.90;999.90;;;;;;;32.76;29.38;94976.28;5031091;28;20033;-69
2022/06/19 06:58:11;;;;;;;1999.90;999.90;;;;;;;32.94;29.55;94990.19;5031295;28;20061;-69
2022/06/19 07:00:37;;;;;;;1999.90;999.90;;;;;;;33.12;29.43;95006.03;5029267;28;20029;-69
2022/06/19 07:03:03;;;;;;;1999.90;999.90;;;;;;;33.04;29.28;94980.72;5031212;28;20029;-68
2022/06/19 07:05:29;;;;;;;1999.90;999.90;;;;;;;33.28;28.65;95005.00;5031093;28;20029;-69
2022/06/19 07:07:56;;;;;;;1999.90;999.90;;;;;;;33.23;27.92;94989.81;5031127;28;20033;-70
2022/06/19 07:10:22;;;;;;;1999.90;999.90;;;;;;;33.30;27.24;95002.53;5030438;28;20092;-69
2022/06/19 07:12:48;;;;;;;1999.90;999.90;;;;;;;33.19;28.07;94974.66;5030907;28;20022;-69
2022/06/19 07:15:13;;;;;;;1999.90;999.90;;;;;;;33.35;27.37;94991.69;5030936;28;20022;-69
2022/06/19 07:17:39;;;;;;;1999.90;999.90;;;;;;;33.33;27.90;94979.59;5028487;28;20032;-69
2022/06/19 07:20:05;;;;;;;1999.90;999.90;;;;;;;33.29;27.15;94981.72;5030400;28;20025;-70
2022/06/19 07:22:31;;;;;;;1999.90;999.90;;;;;;;33.05;26.90;94970.47;5030607;28;20073;-69
2022/06/19 07:24:56;;;;;;;1999.90;999.90;;;;;;;33.22;26.44;94984.75;5030848;28;20053;-70
2022/06/19 07:27:23;;;;;;;1999.90;999.90;;;;;;;33.12;26.51;94972.97;5030729;28;20028;-69
2022/06/19 07:29:48;;;;;;;1999.90;999.90;;;;;;;33.47;26.96;95006.59;5030915;28;20033;-69
2022/06/19 07:32:14;;;;;;;1999.90;999.90;;;;;;;33.43;26.73;94985.94;5030034;28;20037;-69
2022/06/19 07:34:41;;;;;;;1999.90;999.90;;;;;;;33.21;26.58;94975.72;5030673;28;20028;-69
2022/06/19 07:37:14;;;;;;;1999.90;999.90;;;;;;;33.32;26.04;94998.13;5086974;27;20456;-70
2022/06/19 07:39:40;;;;;;;1999.90;999.90;;;;;;;33.52;26.23;94992.19;5085642;28;20028;-68
2022/06/19 07:42:08;;;;;;;1999.90;999.90;;;;;;;33.56;25.64;94973.50;5086728;28;20031;-68
2022/06/19 07:44:38;;;;;;;1999.90;999.90;;;;;;;33.27;25.67;94993.22;5085404;28;20452;-71
2022/06/19 07:52:34;;;;;;;1999.90;999.90;;;;;;;34.10;26.01;94990.59;5086876;28;20082;-68
2022/06/19 07:54:59;;;;;;;1999.90;999.90;;;;;;;34.18;26.26;94997.31;5086650;28;20033;-68
2022/06/19 07:57:24;;;;;;;1999.90;999.90;;;;;;;34.16;26.24;94974.16;5085386;28;20044;-70
2022/06/19 07:59:50;;;;;;;1999.90;999.90;;;;;;;33.89;26.35;94972.94;5085348;28;20039;-68
2022/06/19 08:02:15;;;;;;;1999.90;999.90;;;;;;;34.38;26.55;94986.53;5084863;28;20029;-68
2022/06/19 08:04:41;;;;;;;1999.90;999.90;;;;;;;34.11;26.72;94986.59;5086492;28;20024;-68
2022/06/19 08:07:06;;;;;;;1999.90;999.90;;;;;;;33.62;26.89;94992.97;5086546;28;20033;-68
2022/06/19 08:09:31;;;;;;;1999.90;999.90;;;;;;;32.82;28.12;94971.75;5085313;28;20107;-68
2022/06/19 08:11:57;;;;;;;1999.90;999.90;;;;;;;32.31;28.85;94988.59;5085810;28;20040;-68
2022/06/19 08:14:22;;;;;;;1999.90;999.90;;;;;;;32.73;28.73;95008.28;5086306;28;20456;-71
2022/06/19 08:16:48;;;;;;;1999.90;999.90;;;;;;;32.51;27.39;94983.53;5086231;28;20056;-68
2022/06/19 08:19:13;;;;;;;1999.90;999.90;;;;;;;33.26;26.80;94991.66;5086274;28;20038;-68
2022/06/19 08:21:39;;;;;;;1999.90;999.90;;;;;;;32.87;27.73;94979.41;5085831;28;20069;-70
2022/06/19 08:24:04;;;;;;;1999.90;999.90;;;;;;;32.62;26.31;94952.06;5085983;28;20024;-70
2022/06/19 08:26:31;;;;;;;1999.90;999.90;;;;;;;32.37;27.58;94989.56;5086089;28;20024;-70
2022/06/19 08:31:22;;;;;;;1999.90;999.90;;;;;;;32.59;27.67;95000.53;5085760;28;20013;-71
2022/06/19 08:33:47;;;;;;;1999.90;999.90;;;;;;;32.28;28.05;95003.22;5085904;28;20118;-70
2022/06/19 08:36:12;;;;;;;1999.90;999.90;;;;;;;32.59;27.29;95006.81;5084423;28;20040;-69
2022/06/19 08:38:47;;;;;;;1999.90;999.90;;;;;;;32.16;27.49;94980.06;5085808;28;20016;-70
2022/06/19 08:41:35;;;;;;;1999.90;999.90;;;;;;;32.33;27.38;95003.41;5085363;28;20081;-70
2022/06/19 08:44:20;;;;;;;1999.90;999.90;;;;;;;32.34;28.01;95006.94;5084774;28;20346;-69
2022/06/19 08:46:48;;;;;;;1999.90;999.90;;;;;;;32.53;27.29;95007.84;5082388;28;20037;-70
2022/06/19 08:49:21;;;;;;;1999.90;999.90;;;;;;;32.33;28.12;95002.66;5072265;28;20540;-71
2022/06/19 08:51:59;;;;;;;1999.90;999.90;;;;;;;32.64;28.14;94988.19;5071601;28;20047;-70
2022/06/19 08:54:50;;;;;;;1999.90;999.90;;;;;;;32.64;27.68;94966.91;5071665;28;20103;-69
2022/06/19 08:57:41;;;;;;;1999.90;999.90;;;;;;;32.43;28.82;94990.50;5072126;28;20063;-69
2022/06/19 09:00:15;;;;;;;1999.90;999.90;;;;;;;33.32;28.47;94970.56;5071616;28;20030;-69
2022/06/19 09:03:04;;;;;;;1999.90;999.90;;;;;;;33.77;27.35;94988.41;5072055;28;20596;-69
2022/06/19 09:05:44;;;;;;;1999.90;999.90;;;;;;;33.16;28.42;94994.84;5072051;28;20051;-69
2022/06/19 09:08:25;;;;;;;1999.90;999.90;;;;;;;33.08;28.05;94988.84;5071919;28;20024;-70
2022/06/19 09:11:28;;;;;;;1999.90;999.90;;;;;;;32.95;28.57;94996.44;5070113;28;20032;-70
2022/06/19 09:14:23;;;;;;;1999.90;999.90;;;;;;;33.32;27.51;94995.38;5070522;28;20036;-70
2022/06/19 09:17:04;;;;;;;1999.90;999.90;;;;;;;34.01;26.68;94994.09;5071673;28;20028;-70
2022/06/19 09:19:50;;;;;;;1999.90;999.90;;;;;;;33.89;26.82;94983.97;5071829;28;20066;-70
2022/06/19 09:22:33;;;;;;;1999.90;999.90;;;;;;;33.72;27.00;95000.03;5071218;28;20025;-69
2022/06/19 09:25:02;;;;;;;1999.90;999.90;;;;;;;34.43;26.92;94998.22;5070290;28;20028;-70
2022/06/19 09:28:25;;;;;;;1999.90;999.90;;;;;;;33.97;27.32;95001.78;5071479;28;20052;-70
2022/06/19 09:31:15;;;;;;;1999.90;999.90;;;;;;;34.30;26.86;94976.31;5068730;28;20024;-70
2022/06/19 09:33:53;;;;;;;1999.90;999.90;;;;;;;34.60;26.87;94975.34;5069053;28;20493;-70
2022/06/19 09:36:28;;;;;;;1999.90;999.90;;;;;;;33.53;27.37;94957.91;5070707;28;20048;-70
2022/06/19 09:39:15;;;;;;;1999.90;999.90;;;;;;;33.57;27.46;94986.06;5071344;28;20625;-70
2022/06/19 09:41:52;;;;;;;1999.90;999.90;;;;;;;33.50;27.28;94956.06;5070972;28;20103;-70
2022/06/19 09:44:45;;;;;;;1999.90;999.90;;;;;;;33.70;27.06;94991.47;5071095;28;20020;-71
2022/06/19 09:47:30;;;;;;;1999.90;999.90;;;;;;;33.96;27.58;94991.19;5077213;28;20037;-69
2022/06/19 09:50:12;;;;;;;1999.90;999.90;;;;;;;33.93;27.82;94978.28;5069535;28;20025;-70
2022/06/19 09:52:55;;;;;;;1999.90;999.90;;;;;;;33.34;27.77;94964.56;5070862;28;20028;-70
2022/06/19 09:55:37;;;;;;;1999.90;999.90;;;;;;;34.68;25.87;94983.28;5070908;28;20116;-69
2022/06/19 09:58:12;;;;;;;1999.90;999.90;;;;;;;35.39;25.37;94957.81;5071049;28;20935;-72
2022/06/19 10:00:40;;;;;;;1999.90;999.90;;;;;;;34.65;25.65;94944.31;5069759;28;20020;-70
2022/06/19 10:03:41;;;;;;;1999.90;999.90;;;;;;;35.26;25.18;94965.56;5070747;28;20033;-70
2022/06/19 10:06:10;;;;;;;;;;;;;;;36.19;25.21;94968.00;5071292;28;20234;-70
2022/06/19 10:08:52;;;;;;;1999.90;999.90;;;;;;;36.00;24.11;94922.34;5070513;28;19937;-70
2022/06/19 10:11:28;;;;;;;1999.90;999.90;;;;;;;36.08;24.35;94972.53;5070137;28;20354;-70
2022/06/19 10:14:04;;;;;;;1999.90;999.90;;;;;;;35.63;24.77;94947.53;5070647;28;20032;-70
2022/06/19 10:16:44;;;;;;;1999.90;999.90;;;;;;;35.14;25.32;94947.97;5070259;28;20035;-70
2022/06/19 10:19:33;;;;;;;;;;;;;;;35.74;24.58;94955.28;5071094;28;20036;-70
2022/06/19 10:22:23;;;;;;;1999.90;999.90;;;;;;;36.50;23.97;94950.19;5065661;28;19920;-71
2022/06/19 10:25:17;;;;;;;1999.90;999.90;;;;;;;36.11;24.63;94946.69;5070384;28;20032;-70
2022/06/19 10:27:55;;;;;;;1999.90;999.90;;;;;;;36.99;24.02;94953.47;5070798;28;20024;-71
2022/06/19 10:30:47;;;;;;;1999.90;999.90;;;;;;;37.27;23.54;94942.78;5070040;28;20496;-70
2022/06/19 10:33:12;;;;;;;1999.90;999.90;;;;;;;37.21;22.72;94937.13;5061200;28;20382;-71
2022/06/19 10:35:45;;;;;;;1999.90;999.90;;;;;;;36.23;23.19;94929.03;5070117;28;20032;-70
2022/06/19 10:38:39;;;;;;;1999.90;999.90;;;;;;;36.59;23.36;94946.53;5070228;28;20445;-70
2022/06/19 10:42:00;;;;;;;1999.90;999.90;;;;;;;36.57;23.49;94897.13;5068325;28;20020;-70
2022/06/19 10:44:18;;;;;;;1999.90;999.90;;;;;;;37.15;23.78;94956.47;5070105;28;20051;-71
2022/06/19 10:46:51;;;;;;;1999.90;999.90;;;;;;;36.20;24.23;94946.59;5068978;28;20024;-71
2022/06/19 10:50:07;;;;;;;1999.90;999.90;;;;;;;35.85;24.96;94947.19;5070008;28;20033;-70
2022/06/19 10:52:53;;;;;;;1999.90;999.90;;;;;;;35.35;25.57;94946.91;5069734;28;20031;-70
2022/06/19 10:55:40;;;;;;;1999.90;999.90;;;;;;;36.60;24.15;94923.91;5069613;28;20028;-71
2022/06/19 10:58:21;;;;;;;1999.90;999.90;;;;;;;36.85;23.25;94941.13;5069816;28;20033;-70
2022/06/19 11:00:50;;;;;;;;;;;;;;;36.26;23.44;94932.84;5069787;28;20071;-70
2022/06/19 11:06:27;;;;;;;1999.90;999.90;;;;;;;36.95;23.68;94909.31;5069843;28;20035;-70
2022/06/19 11:09:00;;;;;;;1999.90;999.90;;;;;;;35.73;23.74;94887.34;5069842;28;20028;-70
2022/06/19 11:11:28;;;;;;;1999.90;999.90;;;;;;;36.89;23.09;94913.97;5067638;28;20024;-70
2022/06/19 11:13:57;;;;;;;1999.90;999.90;;;;;;;36.52;24.24;94922.75;5069814;28;20535;-71
2022/06/19 11:16:23;;;;;;;1999.90;999.90;;;;;;;37.46;22.88;94905.22;5068158;28;20071;-70
2022/06/19 11:18:50;;;;;;;1999.90;999.90;;;;;;;37.39;22.73;94897.31;5069437;28;20060;-70
2022/06/19 11:21:20;;;;;;;1999.90;999.90;;;;;;;37.71;22.78;94920.41;5068760;28;20059;-70
2022/06/19 11:23:48;;;;;;;1999.90;999.90;;;;;;;37.91;22.32;94920.41;5068292;28;20028;-70